createdAt,value
2023-01-18T20:27:47.835Z,996.78
2023-01-18T20:28:47.756Z,996.79
2023-01-18T20:29:47.693Z,996.77
2023-01-18T20:30:47.647Z,996.83
2023-01-18T20:31:50.175Z,996.81
2023-01-18T20:32:47.541Z,996.81
2023-01-18T20:33:47.483Z,996.81
2023-01-18T20:34:47.788Z,996.84
2023-01-18T20:35:47.376Z,996.84
2023-01-18T20:36:47.326Z,996.87
2023-01-18T20:37:47.277Z,996.90
2023-01-18T20:38:47.223Z,996.91
2023-01-18T20:39:47.169Z,996.88
2023-01-18T20:40:47.124Z,996.92
2023-01-18T20:41:47.067Z,996.89
2023-01-18T20:42:47.018Z,996.92
2023-01-18T20:43:47.022Z,996.89
2023-01-18T20:44:46.924Z,996.91
2023-01-18T20:45:46.968Z,996.96
2023-01-18T20:46:47.537Z,996.93
2023-01-18T20:47:46.770Z,996.97
2023-01-18T20:48:46.719Z,996.97
2023-01-18T20:49:46.668Z,996.96
2023-01-18T20:50:46.619Z,996.96
2023-01-18T20:51:46.575Z,996.90
2023-01-18T20:52:46.545Z,996.95
2023-01-18T20:53:46.473Z,996.95
2023-01-18T20:54:46.422Z,996.94
2023-01-18T20:55:46.371Z,996.94
2023-01-18T20:56:46.327Z,996.93
2023-01-18T20:57:46.281Z,997.00
2023-01-18T20:58:46.228Z,996.94
2023-01-18T20:59:46.296Z,996.98
2023-01-18T21:01:46.170Z,997.00
2023-01-18T21:02:46.055Z,997.02
2023-01-18T21:03:45.980Z,997.01
2023-01-18T21:04:45.929Z,996.98
2023-01-18T21:05:45.912Z,996.99
2023-01-18T21:06:45.834Z,997.01
2023-01-18T21:07:45.791Z,997.01
2023-01-18T21:08:45.752Z,997.02
2023-01-18T21:09:45.689Z,997.06
2023-01-18T21:10:45.640Z,997.02
2023-01-18T21:11:45.592Z,996.99
2023-01-18T21:12:47.039Z,997.03
2023-01-18T21:13:45.493Z,997.05
2023-01-18T21:14:45.441Z,997.00
2023-01-18T21:15:45.423Z,997.10
2023-01-18T21:16:45.399Z,997.04
2023-01-18T21:17:45.298Z,997.07
2023-01-18T21:18:45.250Z,997.12
2023-01-18T21:19:45.205Z,997.15
2023-01-18T21:20:45.157Z,997.12
2023-01-18T21:21:45.106Z,997.14
2023-01-18T21:22:45.053Z,997.13
2023-01-18T21:23:45.011Z,997.13
2023-01-18T21:24:44.957Z,997.10
2023-01-18T21:25:44.915Z,997.17
2023-01-18T21:26:44.867Z,997.12
2023-01-18T21:27:44.823Z,997.13
2023-01-18T21:28:44.769Z,997.17
2023-01-18T21:29:44.720Z,997.18
2023-01-18T21:30:44.678Z,997.23
2023-01-18T21:31:44.767Z,997.17
2023-01-18T21:32:44.570Z,997.24
2023-01-18T21:33:44.544Z,997.22
2023-01-18T21:34:44.475Z,997.20
2023-01-18T21:35:44.425Z,997.21
2023-01-18T21:36:44.382Z,997.20
2023-01-18T21:37:44.333Z,997.30
2023-01-18T21:38:44.289Z,997.25
2023-01-18T21:39:44.276Z,997.24
2023-01-18T21:40:44.181Z,997.20
2023-01-18T21:41:44.143Z,997.17
2023-01-18T21:42:44.084Z,997.20
2023-01-18T21:43:44.037Z,997.23
2023-01-18T21:44:43.991Z,997.23
2023-01-18T21:45:44.016Z,997.25
2023-01-18T21:46:43.890Z,997.27
2023-01-18T21:47:43.908Z,997.27
2023-01-18T21:48:43.810Z,997.28
2023-01-18T21:50:11.381Z,997.23
2023-01-18T21:50:43.727Z,997.27
2023-01-18T21:51:43.650Z,997.29
2023-01-18T21:52:43.648Z,997.28
2023-01-18T21:54:43.506Z,997.29
2023-01-18T21:55:43.453Z,997.33
2023-01-18T21:56:43.412Z,997.32
2023-01-18T21:57:43.357Z,997.31
2023-01-18T21:58:43.310Z,997.36
2023-01-18T21:59:43.269Z,997.37
2023-01-18T22:00:43.218Z,997.33
2023-01-18T22:01:43.314Z,997.34
2023-01-18T22:02:43.200Z,997.34
2023-01-18T22:03:43.088Z,997.37
2023-01-18T22:04:43.020Z,997.40
2023-01-18T22:05:42.979Z,997.36
2023-01-18T22:06:42.932Z,997.34
2023-01-18T22:07:42.883Z,997.36
2023-01-18T22:08:42.826Z,997.36
2023-01-18T22:09:45.354Z,997.38
2023-01-18T22:10:42.729Z,997.36
2023-01-18T22:11:42.686Z,997.37
2023-01-18T22:12:42.635Z,997.42
2023-01-18T22:13:42.587Z,997.41
2023-01-18T22:14:42.534Z,997.40
2023-01-18T22:15:42.492Z,997.38
2023-01-18T22:16:42.474Z,997.35
2023-01-18T22:17:42.388Z,997.42
2023-01-18T22:18:42.961Z,997.40
2023-01-18T22:19:42.314Z,997.43
2023-01-18T22:20:42.247Z,997.43
2023-01-18T22:21:42.196Z,997.40
2023-01-18T22:22:42.147Z,997.45
2023-01-18T22:23:42.100Z,997.45
2023-01-18T22:24:42.051Z,997.52
2023-01-18T22:25:41.999Z,997.53
2023-01-18T22:26:41.953Z,997.47
2023-01-18T22:27:41.906Z,997.44
2023-01-18T22:28:41.859Z,997.48
2023-01-18T22:29:41.808Z,997.48
2023-01-18T22:30:41.811Z,997.47
2023-01-18T22:31:41.715Z,997.49
2023-01-18T22:32:41.663Z,997.48
2023-01-18T22:33:41.618Z,997.49
2023-01-18T22:34:41.567Z,997.53
2023-01-18T22:35:41.537Z,997.48
2023-01-18T22:36:41.473Z,997.56
2023-01-18T22:37:41.430Z,997.52
2023-01-18T22:38:41.373Z,997.51
2023-01-18T22:39:41.335Z,997.57
2023-01-18T22:40:41.276Z,997.55
2023-01-18T22:41:41.224Z,997.61
2023-01-18T22:42:41.176Z,997.63
2023-01-18T22:43:41.128Z,997.60
2023-01-18T22:44:41.083Z,997.68
2023-01-18T22:45:41.033Z,997.62
2023-01-18T22:46:40.984Z,997.69
2023-01-18T22:47:40.939Z,997.66
2023-01-18T22:48:40.899Z,997.65
2023-01-18T22:49:40.838Z,997.65
2023-01-18T22:50:40.806Z,997.59
2023-01-18T22:51:40.761Z,997.66
2023-01-18T22:52:40.693Z,997.66
2023-01-18T22:53:40.646Z,997.64
2023-01-18T22:54:40.600Z,997.63
2023-01-18T22:55:40.550Z,997.65
2023-01-18T22:56:40.501Z,997.66
2023-01-18T22:57:40.452Z,997.70
2023-01-18T22:58:40.405Z,997.70
2023-01-18T22:59:40.360Z,997.69
2023-01-18T23:00:40.305Z,997.66
2023-01-18T23:01:40.258Z,997.74
2023-01-18T23:02:40.217Z,997.71
2023-01-18T23:03:40.304Z,997.70
2023-01-18T23:04:40.114Z,997.71
2023-01-18T23:05:40.061Z,997.69
2023-01-18T23:06:40.077Z,997.74
2023-01-18T23:07:39.987Z,997.75
2023-01-18T23:08:39.917Z,997.76
2023-01-18T23:09:39.868Z,997.79
2023-01-18T23:10:39.823Z,997.84
2023-01-18T23:11:39.774Z,997.82
2023-01-18T23:12:39.724Z,997.88
2023-01-18T23:13:39.876Z,997.91
2023-01-18T23:14:39.637Z,997.88
2023-01-18T23:15:39.583Z,997.90
2023-01-18T23:17:39.501Z,997.89
2023-01-18T23:18:39.429Z,997.87
2023-01-18T23:20:39.335Z,997.90
2023-01-18T23:21:39.284Z,997.93
2023-01-18T23:22:39.235Z,997.89
2023-01-18T23:23:39.204Z,997.90
2023-01-18T23:24:39.147Z,997.91
2023-01-18T23:25:39.091Z,997.92
2023-01-18T23:26:39.053Z,998.00
2023-01-18T23:27:39.008Z,997.98
2023-01-18T23:28:38.946Z,997.95
2023-01-18T23:29:38.959Z,997.94
2023-01-18T23:30:38.856Z,997.97
2023-01-18T23:31:38.802Z,997.94
2023-01-18T23:32:38.765Z,997.97
2023-01-18T23:33:38.701Z,997.92
2023-01-18T23:34:38.654Z,997.85
2023-01-18T23:35:38.611Z,997.87
2023-01-18T23:36:38.565Z,997.87
2023-01-18T23:37:38.510Z,997.92
2023-01-18T23:38:38.465Z,997.87
2023-01-18T23:39:38.515Z,997.91
2023-01-18T23:40:38.363Z,997.91
2023-01-18T23:41:38.311Z,997.92
2023-01-18T23:42:38.265Z,997.84
2023-01-18T23:43:38.215Z,997.87
2023-01-18T23:44:38.172Z,997.83
2023-01-18T23:45:38.127Z,997.87
2023-01-18T23:46:38.116Z,997.90
2023-01-18T23:47:38.022Z,997.84
2023-01-18T23:48:38.201Z,997.85
2023-01-18T23:49:37.922Z,997.82
2023-01-18T23:50:37.882Z,997.79
2023-01-18T23:51:37.828Z,997.85
2023-01-18T23:52:37.783Z,997.87
2023-01-18T23:53:37.750Z,997.89
2023-01-18T23:54:37.681Z,997.83
2023-01-18T23:55:37.651Z,997.82
2023-01-18T23:56:37.600Z,997.84
2023-01-18T23:57:37.533Z,997.88
2023-01-18T23:58:37.488Z,997.87
2023-01-18T23:59:37.437Z,997.91
